createdAt,value
2022-12-14T00:02:12.015Z,3.05
2022-12-14T00:04:38.882Z,3.95
2022-12-14T00:07:05.693Z,3.85
2022-12-14T00:09:32.654Z,3.45
2022-12-14T00:11:59.499Z,4.40
2022-12-14T00:14:26.299Z,3.70
2022-12-14T00:16:53.090Z,2.83
2022-12-14T00:19:19.964Z,3.22
2022-12-14T00:21:46.838Z,2.95
2022-12-14T00:24:13.655Z,3.08
2022-12-14T00:26:40.476Z,3.78
2022-12-14T00:29:07.315Z,3.47
2022-12-14T00:31:34.482Z,4.00
2022-12-14T00:34:01.657Z,4.30
2022-12-14T00:36:31.184Z,3.00
2022-12-14T00:38:58.094Z,4.13
2022-12-14T00:41:24.933Z,3.10
2022-12-14T00:43:51.954Z,3.47
2022-12-14T00:46:18.926Z,3.00
2022-12-14T00:48:46.516Z,2.50
2022-12-14T00:51:15.090Z,3.35
2022-12-14T00:53:44.615Z,2.50
2022-12-14T00:56:12.315Z,1.95
2022-12-14T00:58:39.131Z,2.80
2022-12-14T01:01:13.377Z,2.95
2022-12-14T01:03:40.627Z,3.55
2022-12-14T01:06:18.236Z,2.90
2022-12-14T01:08:45.218Z,3.13
2022-12-14T01:11:13.526Z,3.40
2022-12-14T01:13:41.661Z,3.88
2022-12-14T01:16:14.546Z,2.85
2022-12-14T01:18:43.428Z,2.95
2022-12-14T01:21:16.043Z,2.55
2022-12-14T01:23:44.141Z,3.08
2022-12-14T01:26:13.597Z,2.60
2022-12-14T01:28:40.982Z,2.85
2022-12-14T01:31:18.301Z,3.30
2022-12-14T01:33:45.458Z,2.92
2022-12-14T01:36:18.657Z,2.90
2022-12-14T01:38:46.396Z,2.63
2022-12-14T01:41:39.242Z,3.60
2022-12-14T01:44:08.983Z,2.70
2022-12-14T01:46:41.725Z,2.35
2022-12-14T01:49:24.097Z,3.25
2022-12-14T01:52:15.118Z,2.78
2022-12-14T01:54:49.106Z,3.05
2022-12-14T01:57:19.402Z,3.08
2022-12-14T01:59:47.397Z,2.80
2022-12-14T02:02:16.834Z,2.78
2022-12-14T02:04:52.328Z,3.17
2022-12-14T02:07:19.203Z,2.45
2022-12-14T02:09:47.876Z,3.25
2022-12-14T02:12:27.462Z,2.20
2022-12-14T02:14:55.292Z,2.85
2022-12-14T02:17:22.822Z,3.22
2022-12-14T02:19:49.708Z,2.50
2022-12-14T02:23:09.847Z,3.00
2022-12-14T02:26:22.012Z,2.85
2022-12-14T02:29:09.884Z,2.42
2022-12-14T02:32:03.113Z,2.00
2022-12-14T02:34:33.043Z,3.15
2022-12-14T02:37:04.473Z,2.30
2022-12-14T02:40:02.661Z,2.67
2022-12-14T02:42:56.986Z,3.22
2022-12-14T02:46:03.233Z,2.80
2022-12-14T02:48:38.740Z,2.92
2022-12-14T02:51:46.621Z,2.60
2022-12-14T02:54:23.826Z,3.63
2022-12-14T02:57:03.935Z,3.22
2022-12-14T02:59:33.338Z,3.05
2022-12-14T03:02:02.992Z,3.30
2022-12-14T03:04:29.984Z,3.33
2022-12-14T03:07:05.624Z,2.83
2022-12-14T03:09:33.066Z,2.72
2022-12-14T03:12:10.661Z,2.78
2022-12-14T03:14:45.049Z,3.17
2022-12-14T03:17:19.897Z,2.80
2022-12-14T03:20:01.600Z,2.80
2022-12-14T03:22:59.644Z,3.10
2022-12-14T03:25:43.280Z,2.50
2022-12-14T03:28:45.731Z,2.40
2022-12-14T03:31:32.120Z,2.45
2022-12-14T03:34:02.547Z,1.83
2022-12-14T03:37:19.423Z,2.25
2022-12-14T03:39:47.478Z,2.60
2022-12-14T03:42:35.497Z,2.20
2022-12-14T03:45:16.100Z,2.95
2022-12-14T03:48:21.452Z,2.17
2022-12-14T03:51:22.809Z,3.00
2022-12-14T03:54:20.291Z,2.30
2022-12-14T03:56:56.018Z,1.95
2022-12-14T03:59:27.326Z,2.88
2022-12-14T04:02:28.561Z,2.50
2022-12-14T04:05:08.058Z,2.90
2022-12-14T04:08:12.365Z,2.85
2022-12-14T04:11:26.535Z,2.22
2022-12-14T04:14:39.177Z,2.63
2022-12-14T04:17:32.253Z,2.92
2022-12-14T04:20:19.726Z,3.72
2022-12-14T04:23:08.410Z,2.55
2022-12-14T04:25:59.679Z,2.70
2022-12-14T04:28:52.428Z,2.55
2022-12-14T04:31:23.486Z,3.05
2022-12-14T04:33:54.781Z,3.60
2022-12-14T04:36:30.972Z,3.78
2022-12-14T04:39:07.412Z,3.72
2022-12-14T04:41:43.884Z,3.40
2022-12-14T04:44:24.012Z,3.58
2022-12-14T04:46:53.652Z,3.80
2022-12-14T04:49:28.978Z,2.95
2022-12-14T04:52:05.596Z,3.45
2022-12-14T04:54:47.880Z,2.90
2022-12-14T04:57:42.326Z,3.30
2022-12-14T05:00:10.386Z,4.28
2022-12-14T05:03:13.646Z,2.67
2022-12-14T05:06:15.052Z,3.50
2022-12-14T05:09:06.266Z,3.08
2022-12-14T05:12:15.097Z,4.00
2022-12-14T05:14:55.666Z,3.38
2022-12-14T05:17:22.456Z,3.63
2022-12-14T05:19:50.879Z,3.92
2022-12-14T05:22:18.353Z,4.15
2022-12-14T05:24:45.177Z,3.80
2022-12-14T05:27:12.326Z,3.00
2022-12-14T05:29:39.156Z,3.95
2022-12-14T05:32:05.971Z,4.13
2022-12-14T05:34:32.806Z,3.17
2022-12-14T05:36:59.611Z,3.60
2022-12-14T05:39:26.408Z,3.30
2022-12-14T05:41:53.474Z,4.30
2022-12-14T05:44:20.545Z,4.50
2022-12-14T05:46:47.800Z,4.40
2022-12-14T05:49:14.708Z,4.85
2022-12-14T05:51:42.053Z,4.43
2022-12-14T05:54:08.965Z,4.03
2022-12-14T05:56:35.906Z,4.40
2022-12-14T05:59:02.875Z,4.72
2022-12-14T06:01:29.769Z,4.45
2022-12-14T06:03:56.730Z,4.80
2022-12-14T06:06:23.633Z,4.57
2022-12-14T06:08:50.543Z,4.18
2022-12-14T06:11:22.305Z,0.52
2022-12-14T06:13:49.757Z,2.90
2022-12-14T06:16:24.238Z,2.72
2022-12-14T06:18:58.072Z,3.80
2022-12-14T06:21:31.195Z,4.53
2022-12-14T06:23:59.323Z,3.88
2022-12-14T06:26:27.676Z,3.72
2022-12-14T06:28:56.360Z,4.10
2022-12-14T06:31:29.695Z,4.00
2022-12-14T06:33:59.900Z,3.65
2022-12-14T06:36:34.299Z,4.53
2022-12-14T06:39:06.128Z,4.40
2022-12-14T06:41:33.318Z,2.75
2022-12-14T06:44:10.529Z,4.18
2022-12-14T06:46:38.058Z,3.60
2022-12-14T06:49:06.403Z,3.05
2022-12-14T06:51:39.308Z,2.25
2022-12-14T06:54:06.853Z,3.15
2022-12-14T06:56:33.860Z,3.13
2022-12-14T06:59:00.752Z,3.72
2022-12-14T07:01:28.614Z,2.67
2022-12-14T07:03:59.122Z,2.50
2022-12-14T07:06:31.501Z,3.72
2022-12-14T07:09:00.245Z,5.47
2022-12-14T07:11:28.811Z,1.23
2022-12-14T07:13:56.968Z,2.70
2022-12-14T07:16:26.796Z,4.20
2022-12-14T07:18:56.883Z,4.40
2022-12-14T07:21:24.671Z,3.65
2022-12-14T07:23:52.374Z,4.10
2022-12-14T07:26:24.872Z,4.55
2022-12-14T07:28:52.817Z,4.30
2022-12-14T07:31:26.252Z,4.38
2022-12-14T07:33:55.445Z,0.50
2022-12-14T07:36:24.986Z,2.30
2022-12-14T07:38:52.542Z,4.10
2022-12-14T07:41:23.502Z,4.15
2022-12-14T07:43:52.150Z,4.85
2022-12-14T07:46:22.804Z,3.47
2022-12-14T07:48:52.911Z,4.00
2022-12-14T07:51:23.445Z,5.40
2022-12-14T07:53:51.474Z,6.20
2022-12-14T07:56:21.658Z,3.42
2022-12-14T07:58:49.343Z,7.20
2022-12-14T08:01:25.440Z,5.15
2022-12-14T08:03:59.287Z,5.85
2022-12-14T08:06:29.654Z,5.53
2022-12-14T08:08:57.596Z,3.22
2022-12-14T08:11:25.387Z,4.93
2022-12-14T08:14:08.291Z,5.95
2022-12-14T08:16:35.403Z,5.65
2022-12-14T08:19:02.445Z,7.70
2022-12-14T08:21:30.006Z,7.32
2022-12-14T08:23:57.681Z,4.50
2022-12-14T08:26:30.132Z,7.43
2022-12-14T08:29:00.605Z,5.25
2022-12-14T08:31:30.352Z,4.70
2022-12-14T08:33:59.968Z,6.55
2022-12-14T08:36:30.313Z,5.38
2022-12-14T08:39:04.071Z,8.43
2022-12-14T08:41:31.389Z,7.13
2022-12-14T08:44:00.731Z,5.60
2022-12-14T08:46:30.249Z,5.40
2022-12-14T08:48:58.032Z,1.55
2022-12-14T08:51:27.321Z,5.55
2022-12-14T08:53:55.429Z,4.93
2022-12-14T08:56:26.740Z,5.28
2022-12-14T08:58:53.999Z,3.67
2022-12-14T09:01:32.680Z,7.55
2022-12-14T09:04:06.364Z,7.68
2022-12-14T09:06:37.155Z,6.45
2022-12-14T09:09:09.156Z,8.80
2022-12-14T09:11:40.450Z,3.83
2022-12-14T09:14:07.282Z,6.32
2022-12-14T09:16:34.295Z,7.10
2022-12-14T09:19:01.167Z,5.97
2022-12-14T09:21:28.076Z,6.05
2022-12-14T09:23:59.309Z,5.40
2022-12-14T09:26:27.333Z,6.40
2022-12-14T09:28:56.469Z,3.10
2022-12-14T09:31:25.569Z,4.40
2022-12-14T09:33:52.556Z,2.67
2022-12-14T09:36:23.368Z,4.05
2022-12-14T09:38:52.538Z,1.30
2022-12-14T09:41:34.557Z,4.43
2022-12-14T09:44:37.182Z,4.55
2022-12-14T09:47:30.913Z,0.85
2022-12-14T09:50:20.095Z,4.05
2022-12-14T09:52:56.825Z,3.38
2022-12-14T09:55:45.029Z,2.22
2022-12-14T09:58:20.590Z,4.25
2022-12-14T10:01:22.524Z,7.45
2022-12-14T10:04:14.144Z,4.30
2022-12-14T10:07:07.622Z,4.28
2022-12-14T10:09:57.004Z,6.55
2022-12-14T10:12:45.185Z,5.00
2022-12-14T10:15:23.920Z,6.00
2022-12-14T10:18:49.839Z,6.00
2022-12-14T10:21:16.476Z,5.47
2022-12-14T10:23:55.175Z,6.65
2022-12-14T10:26:27.909Z,0.52
2022-12-14T10:29:06.584Z,5.95
2022-12-14T10:31:46.877Z,4.63
2022-12-14T10:34:22.786Z,3.90
2022-12-14T10:36:59.459Z,3.30
2022-12-14T10:39:39.988Z,2.97
2022-12-14T10:42:57.357Z,2.28
2022-12-14T10:45:48.204Z,1.20
2022-12-14T10:48:34.881Z,0.77
2022-12-14T10:51:42.557Z,4.30
2022-12-14T10:54:39.269Z,3.15
2022-12-14T10:57:06.183Z,6.00
2022-12-14T10:59:43.734Z,2.92
2022-12-14T11:02:29.042Z,2.78
2022-12-14T11:04:59.915Z,2.50
2022-12-14T11:07:38.898Z,4.13
2022-12-14T11:10:16.435Z,2.05
2022-12-14T11:13:17.854Z,8.27
2022-12-14T11:15:46.454Z,4.75
2022-12-14T11:18:16.085Z,3.83
2022-12-14T11:21:02.771Z,6.30
2022-12-14T11:23:39.760Z,6.10
2022-12-14T11:26:40.891Z,1.48
2022-12-14T11:29:22.673Z,2.70
2022-12-14T11:31:53.798Z,4.65
2022-12-14T11:34:37.704Z,4.55
2022-12-14T11:37:30.852Z,2.38
2022-12-14T11:40:04.953Z,6.03
2022-12-14T11:42:32.532Z,3.75
2022-12-14T11:45:29.623Z,5.03
2022-12-14T11:48:14.725Z,3.05
2022-12-14T11:50:46.994Z,5.47
2022-12-14T11:53:17.319Z,7.47
2022-12-14T11:56:00.183Z,7.05
2022-12-14T11:58:39.368Z,6.85
2022-12-14T12:01:13.607Z,5.63
2022-12-14T12:03:51.328Z,5.57
2022-12-14T12:06:30.268Z,5.93
2022-12-14T12:09:00.189Z,6.32
2022-12-14T12:11:31.199Z,7.97
2022-12-14T12:14:33.990Z,6.38
2022-12-14T12:17:00.895Z,2.78
2022-12-14T12:19:38.430Z,3.33
2022-12-14T12:22:09.437Z,6.55
2022-12-14T12:25:24.911Z,2.95
2022-12-14T12:27:57.518Z,8.80
2022-12-14T12:30:28.855Z,3.42
2022-12-14T12:33:12.069Z,6.10
2022-12-14T12:35:51.766Z,4.13
2022-12-14T12:38:36.596Z,2.58
2022-12-14T12:41:25.964Z,5.35
2022-12-14T12:44:01.638Z,5.75
2022-12-14T12:46:53.573Z,2.25
2022-12-14T12:49:26.747Z,4.95
2022-12-14T12:52:03.360Z,4.97
2022-12-14T12:54:40.902Z,5.20
2022-12-14T12:57:11.452Z,4.20
2022-12-14T12:59:49.138Z,2.75
2022-12-14T13:02:36.811Z,7.10
2022-12-14T13:05:44.458Z,7.35
2022-12-14T13:08:06.937Z,8.80
2022-12-14T13:11:17.206Z,8.98
2022-12-14T13:13:35.562Z,7.82
2022-12-14T13:16:24.657Z,4.88
2022-12-14T13:21:51.455Z,5.65
2022-12-14T13:24:21.489Z,8.13
2022-12-14T13:27:16.912Z,4.90
2022-12-14T13:30:20.984Z,8.55
2022-12-14T13:33:19.453Z,8.50
2022-12-14T13:36:30.473Z,5.60
2022-12-14T13:39:57.632Z,6.20
2022-12-14T13:42:44.831Z,5.45
2022-12-14T13:45:27.631Z,6.45
2022-12-14T13:47:57.703Z,0.55
2022-12-14T13:50:56.069Z,6.45
2022-12-14T13:53:54.788Z,7.30
2022-12-14T13:56:32.680Z,0.75
2022-12-14T13:59:03.773Z,5.20
2022-12-14T14:01:48.872Z,7.82
2022-12-14T14:04:27.611Z,4.65
2022-12-14T14:07:16.760Z,5.53
2022-12-14T14:09:50.899Z,6.22
2022-12-14T14:12:23.741Z,4.70
2022-12-14T14:15:24.296Z,5.60
2022-12-14T14:17:54.870Z,5.88
2022-12-14T14:21:18.456Z,5.38
2022-12-14T14:24:01.770Z,5.20
2022-12-14T14:26:34.621Z,8.05
2022-12-14T14:29:30.194Z,6.43
2022-12-14T14:32:06.685Z,7.68
2022-12-14T14:34:42.529Z,7.53
2022-12-14T14:37:21.119Z,7.15
2022-12-14T14:40:23.775Z,8.68
2022-12-14T14:43:20.718Z,7.80
2022-12-14T14:45:54.303Z,8.70
2022-12-14T14:48:36.031Z,7.93
2022-12-14T14:51:11.895Z,4.00
2022-12-14T14:53:40.391Z,4.88
2022-12-14T14:56:39.996Z,4.63
2022-12-14T14:59:19.179Z,6.25
2022-12-14T15:02:00.519Z,6.22
2022-12-14T15:04:36.484Z,7.35
2022-12-14T15:07:07.568Z,7.30
2022-12-14T15:09:51.446Z,6.63
2022-12-14T15:12:38.518Z,5.50
2022-12-14T15:15:20.021Z,5.65
2022-12-14T15:17:47.184Z,5.88
2022-12-14T15:20:23.100Z,7.05
2022-12-14T15:22:52.479Z,4.82
2022-12-14T15:25:27.745Z,5.18
2022-12-14T15:27:57.940Z,4.93
2022-12-14T15:30:29.179Z,6.70
2022-12-14T15:33:06.598Z,4.93
2022-12-14T15:35:38.232Z,5.00
2022-12-14T15:38:08.039Z,7.20
2022-12-14T15:40:35.483Z,4.85
2022-12-14T15:43:20.770Z,5.05
2022-12-14T15:45:53.749Z,4.13
2022-12-14T15:48:35.094Z,5.50
2022-12-14T15:51:06.480Z,5.05
2022-12-14T15:53:39.618Z,5.70
2022-12-14T15:56:33.947Z,5.07
2022-12-14T15:59:12.134Z,5.22
2022-12-14T16:01:53.933Z,4.22
2022-12-14T16:04:25.743Z,5.75
2022-12-14T16:07:09.086Z,2.80
2022-12-14T16:09:50.061Z,5.35
2022-12-14T16:12:45.919Z,2.97
2022-12-14T16:15:29.019Z,4.43
2022-12-14T16:18:02.055Z,4.30
2022-12-14T16:20:34.085Z,4.55
2022-12-14T16:23:22.103Z,5.50
2022-12-14T16:25:58.998Z,3.13
2022-12-14T16:28:37.685Z,4.70
2022-12-14T16:31:21.508Z,5.18
2022-12-14T16:34:15.433Z,5.65
2022-12-14T16:36:48.224Z,4.10
2022-12-14T16:39:23.914Z,4.15
2022-12-14T16:42:04.420Z,4.38
2022-12-14T16:44:31.465Z,5.80
2022-12-14T16:47:01.241Z,3.28
2022-12-14T16:49:42.344Z,3.65
2022-12-14T16:52:32.688Z,5.10
2022-12-14T16:55:16.994Z,6.28
2022-12-14T16:57:55.643Z,6.65
2022-12-14T17:00:29.923Z,3.83
2022-12-14T17:03:03.114Z,6.65
2022-12-14T17:05:36.002Z,7.90
2022-12-14T17:08:03.343Z,5.82
2022-12-14T17:10:33.324Z,7.57
2022-12-14T17:13:02.719Z,6.07
2022-12-14T17:15:34.907Z,4.50
2022-12-14T17:18:04.752Z,4.97
2022-12-14T17:20:36.630Z,5.30
2022-12-14T17:23:08.402Z,6.07
2022-12-14T17:25:37.047Z,3.50
2022-12-14T17:28:04.454Z,5.53
2022-12-14T17:30:31.478Z,5.68
2022-12-14T17:32:58.825Z,4.43
2022-12-14T17:35:29.809Z,3.30
2022-12-14T17:37:57.128Z,2.60
2022-12-14T17:40:24.268Z,6.20
2022-12-14T17:42:57.864Z,7.65
2022-12-14T17:45:29.853Z,5.93
2022-12-14T17:47:57.644Z,6.22
2022-12-14T17:50:27.530Z,4.20
2022-12-14T17:52:54.528Z,5.20
2022-12-14T17:55:25.687Z,6.15
2022-12-14T17:57:53.538Z,6.60
2022-12-14T18:00:44.456Z,5.97
2022-12-14T18:03:13.917Z,5.25
2022-12-14T18:05:48.448Z,5.88
2022-12-14T18:08:26.601Z,5.10
2022-12-14T18:11:11.861Z,4.50
2022-12-14T18:13:41.483Z,4.32
2022-12-14T18:16:13.745Z,4.68
2022-12-14T18:18:41.250Z,4.20
2022-12-14T18:21:17.281Z,1.70
2022-12-14T18:23:45.243Z,2.25
2022-12-14T18:26:15.640Z,2.42
2022-12-14T18:28:42.536Z,3.42
2022-12-14T18:31:26.439Z,4.18
2022-12-14T18:33:53.764Z,5.40
2022-12-14T18:36:21.588Z,5.13
2022-12-14T18:38:49.969Z,4.70
2022-12-14T18:41:23.882Z,5.60
2022-12-14T18:43:51.757Z,5.32
2022-12-14T18:46:18.844Z,6.10
2022-12-14T18:48:46.169Z,5.22
2022-12-14T18:51:26.661Z,6.30
2022-12-14T18:53:55.797Z,5.57
2022-12-14T18:56:23.949Z,6.55
2022-12-14T18:58:51.597Z,6.00
2022-12-14T19:01:22.888Z,6.90
2022-12-14T19:03:50.651Z,5.90
2022-12-14T19:09:08.165Z,5.38
2022-12-14T19:11:38.941Z,3.40
2022-12-14T19:14:05.946Z,4.15
2022-12-14T19:16:32.861Z,6.07
2022-12-14T19:19:00.699Z,5.38
2022-12-14T19:21:29.636Z,5.03
2022-12-14T19:23:57.274Z,5.78
2022-12-14T19:26:24.236Z,6.50
2022-12-14T19:28:51.117Z,5.85
2022-12-14T19:31:18.074Z,8.23
2022-12-14T19:33:44.958Z,8.23
2022-12-14T19:36:12.035Z,7.25
2022-12-14T19:38:39.020Z,7.13
2022-12-14T19:41:10.337Z,7.97
2022-12-14T19:43:37.358Z,8.45
2022-12-14T19:46:09.956Z,6.75
2022-12-14T19:48:38.084Z,5.07
2022-12-14T19:51:10.327Z,6.65
2022-12-14T19:53:39.761Z,7.03
2022-12-14T19:56:07.034Z,5.90
2022-12-14T19:58:34.679Z,6.15
2022-12-14T20:01:01.929Z,5.40
2022-12-14T20:03:29.415Z,6.50
2022-12-14T20:05:59.201Z,6.70
2022-12-14T20:08:28.834Z,7.88
2022-12-14T20:10:56.853Z,7.53
2022-12-14T20:13:26.315Z,7.75
2022-12-14T20:16:01.062Z,7.03
2022-12-14T20:18:29.382Z,6.38
2022-12-14T20:21:08.827Z,6.47
2022-12-14T20:23:37.822Z,7.68
2022-12-14T20:26:10.063Z,7.80
2022-12-14T20:28:37.166Z,7.80
2022-12-14T20:31:09.698Z,8.70
2022-12-14T20:33:37.795Z,6.25
2022-12-14T20:36:06.077Z,6.28
2022-12-14T20:38:32.981Z,6.97
2022-12-14T20:41:11.654Z,6.95
2022-12-14T20:43:42.165Z,8.02
2022-12-14T20:46:33.198Z,6.70
2022-12-14T20:49:06.930Z,8.50
2022-12-14T20:51:36.769Z,8.65
2022-12-14T20:54:07.324Z,8.50
2022-12-14T20:56:36.241Z,7.40
2022-12-14T20:59:04.078Z,6.97
2022-12-14T21:01:31.492Z,8.43
2022-12-14T21:04:01.090Z,7.60
2022-12-14T21:06:28.521Z,7.05
2022-12-14T21:09:01.879Z,7.43
2022-12-14T21:11:47.937Z,7.40
2022-12-14T21:14:15.252Z,6.35
2022-12-14T21:16:42.911Z,6.78
2022-12-14T21:19:12.375Z,5.95
2022-12-14T21:21:40.969Z,4.80
2022-12-14T21:24:17.668Z,5.60
2022-12-14T21:26:58.322Z,3.80
2022-12-14T21:29:25.318Z,5.30
2022-12-14T21:31:52.170Z,6.05
2022-12-14T21:34:21.587Z,6.15
2022-12-14T21:36:49.222Z,2.95
2022-12-14T21:39:18.736Z,5.40
2022-12-14T21:42:08.003Z,5.38
2022-12-14T21:44:35.031Z,5.45
2022-12-14T21:47:03.819Z,5.55
2022-12-14T21:49:30.740Z,6.03
2022-12-14T21:51:57.677Z,5.53
2022-12-14T21:54:26.014Z,6.15
2022-12-14T21:57:11.324Z,6.47
2022-12-14T21:59:41.466Z,7.38
2022-12-14T22:02:23.789Z,6.32
2022-12-14T22:04:56.064Z,6.85
2022-12-14T22:07:26.277Z,6.25
2022-12-14T22:09:53.178Z,6.38
2022-12-14T22:12:19.979Z,6.30
2022-12-14T22:14:48.403Z,6.72
2022-12-14T22:17:15.508Z,5.85
2022-12-14T22:19:42.600Z,7.53
2022-12-14T22:22:15.432Z,7.88
2022-12-14T22:24:42.918Z,8.02
2022-12-14T22:27:13.446Z,7.28
2022-12-14T22:29:40.655Z,8.50
2022-12-14T22:32:08.222Z,10.07
2022-12-14T22:34:35.237Z,8.07
2022-12-14T22:37:02.203Z,8.57
2022-12-14T22:39:29.149Z,8.68
2022-12-14T22:41:56.504Z,8.63
2022-12-14T22:44:23.343Z,8.65
2022-12-14T22:46:50.194Z,7.35
2022-12-14T22:49:19.353Z,7.65
2022-12-14T22:51:46.565Z,7.20
2022-12-14T22:54:39.815Z,6.72
2022-12-14T22:57:15.383Z,7.15
2022-12-14T23:00:05.282Z,6.25
2022-12-14T23:02:32.199Z,5.47
2022-12-14T23:04:59.384Z,8.05
2022-12-14T23:07:26.177Z,5.57
2022-12-14T23:10:11.394Z,5.70
2022-12-14T23:12:56.796Z,6.40
2022-12-14T23:15:42.276Z,5.53
2022-12-14T23:18:27.895Z,5.15
2022-12-14T23:21:13.671Z,6.65
2022-12-14T23:24:02.698Z,7.03
2022-12-14T23:26:49.242Z,6.13
2022-12-14T23:29:34.746Z,6.70
2022-12-14T23:32:20.187Z,6.20
2022-12-14T23:35:05.466Z,7.70
2022-12-14T23:37:50.962Z,7.28
2022-12-14T23:40:36.380Z,6.40
2022-12-14T23:43:33.963Z,5.25
2022-12-14T23:46:21.685Z,5.38
2022-12-14T23:49:12.063Z,4.22
2022-12-14T23:52:00.906Z,6.47
2022-12-14T23:54:46.342Z,6.05
2022-12-14T23:57:31.925Z,6.85
